createdAt,value
2023-05-13T00:00:22.549Z,100343.44
2023-05-13T00:03:24.795Z,100335.06
2023-05-13T00:06:28.298Z,100347.91
2023-05-13T00:09:30.166Z,100346.91
2023-05-13T00:12:32.452Z,100344.13
2023-05-13T00:15:34.328Z,100343.59
2023-05-13T00:18:36.209Z,100325.19
2023-05-13T00:21:39.569Z,100339.38
2023-05-13T00:24:41.391Z,100343.19
2023-05-13T00:27:44.187Z,100346.28
2023-05-13T00:30:46.394Z,100341.97
2023-05-13T00:33:49.233Z,100289.78
2023-05-13T00:36:53.012Z,100268.09
2023-05-13T00:39:54.818Z,100258.19
2023-05-13T00:42:56.809Z,100299.97
2023-05-13T00:45:59.171Z,100359.47
2023-05-13T00:49:02.391Z,100353.16
2023-05-13T00:52:06.470Z,100307.78
2023-05-13T00:55:10.294Z,100351.56
2023-05-13T00:58:13.175Z,100293.88
2023-05-13T01:01:21.176Z,100354.22
2023-05-13T01:04:31.210Z,100276.88
2023-05-13T01:07:44.761Z,100309.22
2023-05-13T01:10:49.916Z,100349.91
2023-05-13T01:14:01.585Z,100303.66
2023-05-13T01:17:11.509Z,100360.06
2023-05-13T01:20:14.537Z,100353.81
2023-05-13T01:23:17.805Z,100365.53
2023-05-13T01:26:20.468Z,100333.63
2023-05-13T01:29:22.583Z,100358.84
2023-05-13T01:32:25.351Z,100364.31
2023-05-13T01:35:28.599Z,100324.69
2023-05-13T01:38:32.965Z,100370.69
2023-05-13T01:41:35.232Z,100368.84
2023-05-13T01:44:37.206Z,100365.38
2023-05-13T01:47:39.121Z,100371.13
2023-05-13T01:50:41.304Z,100363.50
2023-05-13T01:53:45.330Z,100358.56
2023-05-13T01:56:47.163Z,100373.94
2023-05-13T01:59:49.004Z,100376.84
2023-05-13T02:02:51.118Z,100370.72
2023-05-13T02:05:53.032Z,100354.28
2023-05-13T02:08:56.344Z,100377.41
2023-05-13T02:11:58.414Z,100374.50
2023-05-13T02:15:00.400Z,100372.69
2023-05-13T02:18:02.509Z,100374.34
2023-05-13T02:21:04.553Z,100355.25
2023-05-13T02:24:08.918Z,100370.03
2023-05-13T02:27:13.014Z,100372.00
2023-05-13T02:30:16.090Z,100371.31
2023-05-13T02:33:18.267Z,100351.91
2023-05-13T02:36:20.165Z,100372.97
2023-05-13T02:39:24.251Z,100321.13
2023-05-13T02:42:26.288Z,100319.31
2023-05-13T02:45:28.849Z,100278.28
2023-05-13T02:48:30.929Z,100383.75
2023-05-13T02:51:32.910Z,100369.38
2023-05-13T02:54:36.146Z,100385.03
2023-05-13T02:57:38.021Z,100382.53
2023-05-13T03:00:40.986Z,100384.03
2023-05-13T03:03:42.886Z,100383.47
2023-05-13T03:06:44.746Z,100377.59
2023-05-13T03:09:48.166Z,100379.28
2023-05-13T03:12:50.251Z,100384.88
2023-05-13T03:15:52.017Z,100380.56
2023-05-13T03:18:53.949Z,100359.94
2023-05-13T03:21:55.967Z,100385.47
2023-05-13T03:25:00.207Z,100388.81
2023-05-13T03:28:03.615Z,100385.63
2023-05-13T03:31:06.138Z,100360.94
2023-05-13T03:34:08.174Z,100392.88
2023-05-13T03:37:10.081Z,100393.59
2023-05-13T03:40:14.451Z,100389.50
2023-05-13T03:43:16.371Z,100403.63
2023-05-13T03:46:18.794Z,100385.78
2023-05-13T03:49:20.799Z,100411.03
2023-05-13T03:52:22.691Z,100398.22
2023-05-13T03:55:25.889Z,100396.69
2023-05-13T03:58:28.724Z,100414.13
2023-05-13T04:01:30.788Z,100417.75
2023-05-13T04:04:33.776Z,100418.59
2023-05-13T04:07:35.641Z,100424.88
2023-05-13T04:10:39.105Z,100426.97
2023-05-13T04:13:41.128Z,100432.16
2023-05-13T04:16:43.016Z,100438.28
2023-05-13T04:19:45.693Z,100433.13
2023-05-13T04:22:48.709Z,100383.19
2023-05-13T04:25:52.593Z,100427.25
2023-05-13T04:28:54.506Z,100443.72
2023-05-13T04:31:56.481Z,100447.91
2023-05-13T04:34:58.808Z,100440.94
2023-05-13T04:38:00.778Z,100431.31
2023-05-13T04:41:05.422Z,100442.59
2023-05-13T04:44:07.318Z,100444.44
2023-05-13T04:47:09.610Z,100426.16
2023-05-13T04:50:11.433Z,100449.28
2023-05-13T04:53:14.576Z,100459.06
2023-05-13T04:56:18.487Z,100459.59
2023-05-13T04:59:20.599Z,100453.75
2023-05-13T05:02:22.516Z,100463.25
2023-05-13T05:05:24.519Z,100456.13
2023-05-13T05:08:26.378Z,100452.09
2023-05-13T05:11:29.600Z,100452.50
2023-05-13T05:14:31.897Z,100469.09
2023-05-13T05:17:34.100Z,100467.13
2023-05-13T05:20:36.623Z,100468.78
2023-05-13T05:23:38.709Z,100465.91
2023-05-13T05:26:43.076Z,100477.19
2023-05-13T05:29:45.441Z,100476.47
2023-05-13T05:32:47.289Z,100469.66
2023-05-13T05:35:49.577Z,100467.81
2023-05-13T05:38:51.499Z,100469.94
2023-05-13T05:41:54.831Z,100463.19
2023-05-13T05:44:57.595Z,100463.25
2023-05-13T05:47:59.614Z,100479.56
2023-05-13T05:51:01.442Z,100482.78
2023-05-13T05:54:03.801Z,100476.53
2023-05-13T05:57:07.087Z,100473.06
2023-05-13T06:00:10.559Z,100477.38
2023-05-13T06:03:12.560Z,100480.88
2023-05-13T06:06:15.441Z,100483.38
2023-05-13T06:09:17.739Z,100447.63
2023-05-13T06:12:22.839Z,100489.16
2023-05-13T06:15:24.759Z,100482.88
2023-05-13T06:18:27.362Z,100483.84
2023-05-13T06:21:29.305Z,100490.44
2023-05-13T06:24:31.306Z,100489.28
2023-05-13T06:27:34.542Z,100494.44
2023-05-13T06:30:38.135Z,100487.47
2023-05-13T06:33:39.928Z,100475.19
2023-05-13T06:36:42.144Z,100479.94
2023-05-13T06:39:44.271Z,100503.53
2023-05-13T06:42:47.508Z,100500.44
2023-05-13T06:45:50.340Z,100505.19
2023-05-13T06:48:53.802Z,100498.22
2023-05-13T06:51:56.694Z,100500.44
2023-05-13T06:54:59.977Z,100504.75
2023-05-13T06:58:03.101Z,100506.28
2023-05-13T07:01:04.950Z,100500.88
2023-05-13T07:04:06.817Z,100503.09
2023-05-13T07:07:09.193Z,100502.56
2023-05-13T07:10:11.264Z,100509.00
2023-05-13T07:13:14.923Z,100509.84
2023-05-13T07:16:17.487Z,100505.50
2023-05-13T07:19:20.202Z,100515.28
2023-05-13T07:22:22.029Z,100509.16
2023-05-13T07:25:24.171Z,100511.53
2023-05-13T07:28:27.415Z,100513.34
2023-05-13T07:31:30.825Z,100517.81
2023-05-13T07:34:32.729Z,100506.66
2023-05-13T07:37:34.549Z,100516.72
2023-05-13T07:40:36.319Z,100522.59
2023-05-13T07:43:40.920Z,100525.91
2023-05-13T07:46:43.136Z,100527.75
2023-05-13T07:49:44.921Z,100531.22
2023-05-13T07:52:49.194Z,100527.88
2023-05-13T07:55:52.031Z,100528.72
2023-05-13T07:58:55.159Z,100526.19
2023-05-13T08:01:57.004Z,100467.47
2023-05-13T08:04:59.097Z,100475.97
2023-05-13T08:08:01.937Z,100460.38
2023-05-13T08:11:03.788Z,100478.63
2023-05-13T08:14:07.170Z,100458.78
2023-05-13T08:17:08.917Z,100489.78
2023-05-13T08:20:11.610Z,100490.03
2023-05-13T08:23:13.460Z,100493.75
2023-05-13T08:26:15.411Z,100448.31
2023-05-13T08:29:19.394Z,100496.03
2023-05-13T08:32:21.767Z,100557.88
2023-05-13T08:35:23.724Z,100548.91
2023-05-13T08:38:25.765Z,100565.00
2023-05-13T08:41:29.508Z,100573.53
2023-05-13T08:44:38.732Z,100573.00
2023-05-13T08:47:48.738Z,100585.16
2023-05-13T08:50:51.545Z,100570.75
2023-05-13T08:53:55.123Z,100581.34
2023-05-13T08:56:56.969Z,100567.09
2023-05-13T09:00:00.363Z,100566.81
2023-05-13T09:03:02.474Z,100548.56
2023-05-13T09:06:05.388Z,100550.72
2023-05-13T09:09:07.329Z,100536.59
2023-05-13T09:12:09.344Z,100555.91
2023-05-13T09:15:13.879Z,100561.06
2023-05-13T09:18:18.577Z,100546.28
2023-05-13T09:21:25.567Z,100559.09
2023-05-13T09:24:27.891Z,100547.38
2023-05-13T09:27:38.308Z,100563.28
2023-05-13T09:30:46.223Z,100460.97
2023-05-13T09:33:52.877Z,100553.41
2023-05-13T09:37:02.450Z,100551.19
2023-05-13T09:40:05.181Z,100554.69
2023-05-13T09:43:08.497Z,100563.78
2023-05-13T09:46:11.693Z,100553.84
2023-05-13T09:49:15.310Z,100538.34
2023-05-13T09:52:17.382Z,100551.19
2023-05-13T09:55:19.252Z,100556.09
2023-05-13T09:58:24.474Z,100553.69
2023-05-13T10:01:28.906Z,100550.63
2023-05-13T10:04:31.083Z,100545.75
2023-05-13T10:07:34.816Z,100544.88
2023-05-13T10:10:37.992Z,100544.84
2023-05-13T10:13:39.840Z,100544.31
2023-05-13T10:16:43.238Z,100519.84
2023-05-13T10:24:40.312Z,100554.47
2023-05-13T10:27:43.423Z,100484.50
2023-05-13T10:30:48.778Z,100551.44
2023-05-13T10:33:52.608Z,100531.75
2023-05-13T10:37:09.963Z,100547.31
2023-05-13T10:40:46.615Z,100544.34
2023-05-13T10:48:08.898Z,100491.06
2023-05-13T10:51:15.266Z,100556.56
2023-05-13T10:54:21.450Z,100548.19
2023-05-13T10:57:29.735Z,100552.91
2023-05-13T11:00:31.929Z,100545.63
2023-05-13T11:03:34.281Z,100559.31
2023-05-13T11:06:37.300Z,100550.78
2023-05-13T11:09:39.238Z,100539.38
2023-05-13T11:12:42.413Z,100548.41
2023-05-13T11:15:45.240Z,100562.34
2023-05-13T11:18:47.403Z,100532.56
2023-05-13T11:21:53.076Z,100555.81
2023-05-13T11:25:09.150Z,100552.31
2023-05-13T11:28:15.471Z,100548.50
2023-05-13T11:31:17.584Z,100539.47
2023-05-13T11:34:20.188Z,100546.41
2023-05-13T11:37:22.829Z,100547.41
2023-05-13T11:40:26.108Z,100548.44
2023-05-13T11:43:29.786Z,100495.50
2023-05-13T11:46:31.882Z,100529.44
2023-05-13T11:49:39.003Z,100547.28
2023-05-13T11:52:41.492Z,100533.09
2023-05-13T11:55:43.456Z,100547.28
2023-05-13T11:58:46.832Z,100535.41
2023-05-13T12:01:59.267Z,100546.78
2023-05-13T12:05:03.059Z,100528.09
2023-05-13T12:08:08.013Z,100543.66
2023-05-13T12:11:13.307Z,100542.78
2023-05-13T12:14:17.442Z,100544.63
2023-05-13T12:17:20.777Z,100546.78
2023-05-13T12:20:23.520Z,100532.28
2023-05-13T12:23:37.360Z,100546.09
2023-05-13T12:26:39.300Z,100554.00
2023-05-13T12:29:43.732Z,100499.53
2023-05-13T12:32:47.206Z,100559.88
2023-05-13T12:35:51.919Z,100552.19
2023-05-13T12:38:56.828Z,100509.56
2023-05-13T12:42:00.100Z,100563.88
2023-05-13T12:45:04.389Z,100548.88
2023-05-13T12:48:06.429Z,100550.78
2023-05-13T12:51:08.297Z,100559.63
2023-05-13T12:54:12.101Z,100563.63
2023-05-13T12:57:15.984Z,100566.63
2023-05-13T13:00:20.643Z,100552.44
2023-05-13T13:03:24.486Z,100528.44
2023-05-13T13:06:26.728Z,100495.56
2023-05-13T13:09:28.686Z,100499.63
2023-05-13T13:12:30.917Z,100520.56
2023-05-13T13:15:34.268Z,100539.56
2023-05-13T13:18:36.201Z,100555.34
2023-05-13T13:21:38.099Z,100540.50
2023-05-13T13:24:39.992Z,100548.69
2023-05-13T13:27:41.831Z,100545.19
2023-05-13T13:30:47.232Z,100544.56
2023-05-13T13:33:53.824Z,100540.41
2023-05-13T13:36:55.738Z,100538.56
2023-05-13T13:39:57.555Z,100535.91
2023-05-13T13:42:59.367Z,100544.78
2023-05-13T13:46:02.631Z,100546.44
2023-05-13T13:49:13.070Z,100539.94
2023-05-13T13:52:28.077Z,100491.03
2023-05-13T13:55:30.019Z,100499.72
2023-05-13T13:58:31.877Z,100547.81
2023-05-13T14:01:35.372Z,100540.47
2023-05-13T14:04:37.375Z,100513.75
2023-05-13T14:07:39.434Z,100492.84
2023-05-13T14:10:41.343Z,100480.53
2023-05-13T14:13:43.382Z,100471.53
2023-05-13T14:16:46.787Z,100519.91
2023-05-13T14:19:51.848Z,100490.06
2023-05-13T14:22:53.804Z,100485.72
2023-05-13T14:34:07.835Z,100443.56
2023-05-13T14:37:20.731Z,100443.91
2023-05-13T14:40:23.017Z,100443.72
2023-05-13T14:44:10.385Z,100445.56
2023-05-13T14:47:12.445Z,100482.78
2023-05-13T14:50:22.858Z,100511.66
2023-05-13T14:53:46.687Z,100510.28
2023-05-13T14:57:27.922Z,100452.91
2023-05-13T15:01:24.193Z,100508.63
2023-05-13T15:04:52.538Z,100444.88
2023-05-13T15:12:25.537Z,100512.47
2023-05-13T15:16:00.192Z,100503.78
2023-05-13T15:23:39.347Z,100471.56
2023-05-13T15:27:34.071Z,100449.72
2023-05-13T15:30:58.389Z,100510.28
2023-05-13T15:34:00.629Z,100450.38
2023-05-13T15:38:02.721Z,100488.44
2023-05-13T15:41:07.036Z,100493.91
2023-05-13T15:44:53.236Z,100518.81
2023-05-13T15:48:18.771Z,100469.25
2023-05-13T15:52:49.584Z,100441.72
2023-05-13T18:15:15.481Z,100443.91
2023-05-13T18:27:02.450Z,100421.72
2023-05-13T18:30:05.247Z,100470.44
2023-05-13T18:33:07.307Z,100477.31
2023-05-13T18:36:10.306Z,100492.97
2023-05-13T18:39:12.414Z,100460.69
2023-05-13T18:42:15.778Z,100458.72
2023-05-13T18:45:18.518Z,100454.50
2023-05-13T18:48:20.929Z,100496.81
2023-05-13T18:51:23.200Z,100448.34
2023-05-13T18:54:29.402Z,100509.16
2023-05-13T18:57:35.426Z,100473.72
2023-05-13T19:00:37.691Z,100449.91
2023-05-13T19:03:40.024Z,100460.13
2023-05-13T19:06:42.252Z,100466.84
2023-05-13T19:09:44.305Z,100456.22
2023-05-13T19:12:47.776Z,100468.66
2023-05-13T19:15:49.867Z,100496.28
2023-05-13T19:18:52.328Z,100477.59
2023-05-13T19:21:54.315Z,100486.56
2023-05-13T19:24:56.379Z,100471.03
2023-05-13T19:28:00.198Z,100517.81
2023-05-13T19:31:04.536Z,100469.09
2023-05-13T19:34:07.775Z,100513.78
2023-05-13T19:37:10.070Z,100460.31
2023-05-13T19:40:12.308Z,100479.00
2023-05-13T19:43:15.880Z,100462.81
2023-05-13T19:46:18.092Z,100562.34
2023-05-13T19:49:20.493Z,100537.91
2023-05-13T19:52:22.427Z,100513.34
2023-05-13T19:55:27.368Z,100507.91
2023-05-13T19:58:30.744Z,100466.63
2023-05-13T20:01:33.036Z,100546.47
2023-05-13T20:04:35.384Z,100460.22
2023-05-13T20:07:37.400Z,100511.28
2023-05-13T20:10:40.575Z,100475.00
2023-05-13T20:13:44.226Z,100519.38
2023-05-13T20:16:46.579Z,100479.47
2023-05-13T20:19:51.136Z,100458.25
2023-05-13T20:22:53.209Z,100500.00
2023-05-13T20:25:56.992Z,100470.53
2023-05-13T20:29:00.379Z,100489.63
2023-05-13T20:32:02.454Z,100529.44
2023-05-13T20:35:05.295Z,100466.03
2023-05-13T20:38:07.301Z,100539.19
2023-05-13T20:41:09.420Z,100523.00
2023-05-13T20:44:15.851Z,100452.94
2023-05-13T20:47:18.567Z,100447.19
2023-05-13T20:50:20.797Z,100489.47
2023-05-13T20:53:32.205Z,100471.47
2023-05-13T20:56:34.224Z,100461.94
2023-05-13T20:59:37.701Z,100492.78
2023-05-13T21:02:39.840Z,100507.28
2023-05-13T21:05:42.302Z,100474.03
2023-05-13T21:08:44.462Z,100483.00
2023-05-13T21:11:46.441Z,100442.91
2023-05-13T21:14:52.204Z,100455.09
2023-05-13T21:17:54.570Z,100518.31
2023-05-13T21:20:56.710Z,100451.09
2023-05-13T21:23:58.741Z,100444.13
2023-05-13T21:27:03.317Z,100513.38
2023-05-13T21:30:10.459Z,100515.59
2023-05-13T21:33:12.805Z,100435.44
2023-05-13T21:36:15.484Z,100445.25
2023-05-13T21:39:17.578Z,100453.03
2023-05-13T21:42:19.491Z,100442.59
2023-05-13T21:45:23.070Z,100425.03
2023-05-13T21:48:28.009Z,100512.72
2023-05-13T21:51:30.024Z,100499.50
2023-05-13T21:54:32.118Z,100435.84
2023-05-13T21:57:34.257Z,100460.41
2023-05-13T22:00:37.717Z,100464.88
2023-05-13T22:03:41.841Z,100426.78
2023-05-13T22:06:43.806Z,100415.50
2023-05-13T22:09:46.991Z,100484.88
2023-05-13T22:12:50.027Z,100429.59
2023-05-13T22:15:53.696Z,100412.59
2023-05-13T22:18:58.853Z,100488.56
2023-05-13T22:22:01.014Z,100439.88
2023-05-13T22:25:03.475Z,100415.94
2023-05-13T22:28:06.776Z,100488.34
2023-05-13T22:31:10.386Z,100486.84
2023-05-13T22:34:12.497Z,100421.13
2023-05-13T22:37:14.432Z,100458.47
2023-05-13T22:40:16.604Z,100438.78
2023-05-13T22:43:18.588Z,100435.63
2023-05-13T22:46:22.122Z,100447.94
2023-05-13T22:49:24.254Z,100434.13
2023-05-13T22:52:26.485Z,100431.50
2023-05-13T22:55:28.502Z,100420.31
2023-05-13T22:58:30.586Z,100423.41
2023-05-13T23:01:34.119Z,100451.19
2023-05-13T23:04:36.206Z,100404.00
2023-05-13T23:07:40.190Z,100412.13
2023-05-13T23:10:42.134Z,100428.88
2023-05-13T23:13:44.189Z,100393.47
2023-05-13T23:16:47.727Z,100463.66
2023-05-13T23:19:49.857Z,100466.63
2023-05-13T23:22:51.879Z,100404.22
2023-05-13T23:25:53.875Z,100402.28
2023-05-13T23:28:55.970Z,100397.25
2023-05-13T23:31:59.441Z,100421.81
2023-05-13T23:35:01.535Z,100386.53
2023-05-13T23:38:06.359Z,100386.94
2023-05-13T23:41:08.378Z,100379.25
2023-05-13T23:44:11.909Z,100436.91
2023-05-13T23:47:15.401Z,100439.28
2023-05-13T23:50:17.520Z,100456.47
2023-05-13T23:53:19.733Z,100383.63
2023-05-13T23:56:22.292Z,100365.75
2023-05-13T23:59:24.474Z,100366.03
